createdAt,value
2018-10-16T00:00:36.971Z,17.97
2018-10-16T00:03:05.030Z,14.03
2018-10-16T00:05:32.989Z,15.40
2018-10-16T00:08:00.991Z,15.47
2018-10-16T00:10:35.259Z,15.90
2018-10-16T00:13:03.231Z,16.83
2018-10-16T00:15:31.211Z,14.80
2018-10-16T00:17:59.213Z,15.83
2018-10-16T00:20:27.223Z,15.40
2018-10-16T00:22:55.195Z,18.67
2018-10-16T00:25:23.174Z,13.13
2018-10-16T00:27:51.134Z,15.97
2018-10-16T00:30:20.160Z,15.17
2018-10-16T00:32:48.493Z,18.27
2018-10-16T00:35:16.371Z,17.47
2018-10-16T00:37:44.348Z,13.50
2018-10-16T00:40:12.726Z,13.73
2018-10-16T00:42:40.679Z,16.87
2018-10-16T00:45:09.559Z,13.03
2018-10-16T00:47:37.853Z,15.60
2018-10-16T00:50:05.830Z,15.47
2018-10-16T00:52:33.787Z,13.00
2018-10-16T00:55:01.866Z,16.67
2018-10-16T00:57:29.763Z,15.07
2018-10-16T00:59:57.816Z,13.63
2018-10-16T01:02:25.882Z,14.43
2018-10-16T01:04:53.893Z,16.17
2018-10-16T01:07:21.871Z,17.27
2018-10-16T01:09:49.887Z,17.33
2018-10-16T01:12:18.163Z,17.73
2018-10-16T01:14:46.128Z,16.37
2018-10-16T01:17:14.135Z,17.07
2018-10-16T01:19:42.227Z,20.20
2018-10-16T01:22:10.192Z,17.70
2018-10-16T01:24:38.528Z,16.97
2018-10-16T01:27:06.491Z,17.07
2018-10-16T01:29:34.506Z,16.57
2018-10-16T01:32:02.536Z,14.53
2018-10-16T01:34:30.815Z,16.40
2018-10-16T01:36:58.828Z,20.87
2018-10-16T01:39:26.914Z,15.80
2018-10-16T01:41:55.133Z,13.30
2018-10-16T01:44:23.120Z,17.90
2018-10-16T01:46:51.283Z,18.13
2018-10-16T01:49:19.457Z,13.40
2018-10-16T01:51:47.504Z,17.00
2018-10-16T01:54:15.473Z,16.57
2018-10-16T01:56:43.462Z,16.07
2018-10-16T01:59:11.480Z,14.50
2018-10-16T02:01:39.454Z,13.77
2018-10-16T02:04:10.763Z,13.87
2018-10-16T02:06:38.823Z,14.33
2018-10-16T02:09:08.750Z,18.53
2018-10-16T02:11:36.708Z,16.70
2018-10-16T02:14:04.787Z,13.93
2018-10-16T02:16:32.754Z,18.33
2018-10-16T02:19:00.739Z,18.83
2018-10-16T02:21:28.796Z,14.03
2018-10-16T02:23:56.953Z,19.07
2018-10-16T02:26:24.941Z,15.90
2018-10-16T02:28:52.912Z,15.07
2018-10-16T02:31:20.983Z,16.07
2018-10-16T02:33:48.943Z,17.17
2018-10-16T02:36:17.024Z,20.97
2018-10-16T02:38:45.095Z,14.30
2018-10-16T02:41:13.105Z,18.07
2018-10-16T02:43:41.135Z,15.70
2018-10-16T02:46:09.093Z,14.80
2018-10-16T02:48:37.431Z,13.97
2018-10-16T02:51:05.745Z,15.27
2018-10-16T02:53:33.998Z,18.67
2018-10-16T02:56:02.026Z,19.17
2018-10-16T02:58:29.980Z,13.00
2018-10-16T03:00:58.259Z,15.87
2018-10-16T03:03:26.536Z,16.67
2018-10-16T03:05:54.506Z,18.67
2018-10-16T03:08:22.469Z,14.03
2018-10-16T03:10:50.423Z,20.67
2018-10-16T03:13:18.524Z,17.30
2018-10-16T03:15:46.473Z,17.60
2018-10-16T03:18:14.534Z,19.13
2018-10-16T03:20:42.554Z,18.97
2018-10-16T03:23:10.505Z,12.20
2018-10-16T03:25:38.523Z,13.50
2018-10-16T03:28:06.523Z,15.30
2018-10-16T03:30:34.577Z,15.60
2018-10-16T03:33:02.691Z,14.83
2018-10-16T03:35:30.650Z,16.10
2018-10-16T03:37:58.727Z,15.40
2018-10-16T03:40:26.819Z,14.13
2018-10-16T03:42:54.874Z,13.33
2018-10-16T03:45:22.820Z,17.87
2018-10-16T03:47:50.876Z,19.67
2018-10-16T03:50:20.735Z,21.93
2018-10-16T03:52:48.813Z,19.13
2018-10-16T03:55:16.869Z,16.87
2018-10-16T03:57:44.846Z,16.23
2018-10-16T04:00:12.907Z,19.03
2018-10-16T04:02:40.991Z,25.50
2018-10-16T04:05:12.775Z,21.90
2018-10-16T04:07:40.814Z,15.53
2018-10-16T04:10:09.203Z,20.90
2018-10-16T04:12:37.359Z,25.20
2018-10-16T04:15:06.688Z,23.27
2018-10-16T04:17:34.678Z,15.57
2018-10-16T04:20:02.610Z,22.37
2018-10-16T04:22:30.657Z,22.33
2018-10-16T04:24:58.590Z,19.27
2018-10-16T04:27:26.711Z,15.40
2018-10-16T04:29:55.178Z,18.93
2018-10-16T04:32:23.319Z,19.80
2018-10-16T04:34:51.325Z,17.43
2018-10-16T04:37:19.320Z,18.63
2018-10-16T04:39:47.362Z,14.13
2018-10-16T04:42:15.417Z,22.00
2018-10-16T04:44:43.442Z,17.57
2018-10-16T04:47:11.416Z,16.47
2018-10-16T04:49:39.369Z,16.40
2018-10-16T04:52:07.316Z,19.43
2018-10-16T04:54:35.319Z,18.97
2018-10-16T04:57:03.555Z,27.47
2018-10-16T04:59:33.163Z,21.07
2018-10-16T05:02:01.702Z,22.60
2018-10-16T05:04:30.401Z,19.17
2018-10-16T05:06:58.888Z,21.80
2018-10-16T05:09:27.399Z,18.17
2018-10-16T05:11:56.014Z,16.97
2018-10-16T05:14:24.591Z,23.47
2018-10-16T05:16:53.395Z,19.67
2018-10-16T05:19:21.475Z,20.97
2018-10-16T05:21:50.043Z,16.77
2018-10-16T05:24:18.380Z,16.53
2018-10-16T05:26:46.737Z,15.83
2018-10-16T05:29:15.708Z,23.00
2018-10-16T05:31:43.638Z,22.00
2018-10-16T05:34:11.582Z,18.60
2018-10-16T05:36:39.529Z,21.37
2018-10-16T05:39:10.167Z,25.17
2018-10-16T05:41:38.168Z,22.43
2018-10-16T05:44:06.139Z,18.30
2018-10-16T05:46:34.167Z,22.77
2018-10-16T05:49:02.140Z,20.60
2018-10-16T05:51:30.387Z,26.47
2018-10-16T05:53:58.387Z,32.40
2018-10-16T05:56:26.592Z,19.60
2018-10-16T05:58:54.609Z,25.60
2018-10-16T06:01:23.178Z,31.80
2018-10-16T06:03:51.196Z,24.93
2018-10-16T06:06:19.150Z,21.03
2018-10-16T06:08:47.156Z,27.90
2018-10-16T06:11:15.333Z,23.20
2018-10-16T06:13:43.753Z,21.90
2018-10-16T06:16:12.233Z,20.53
2018-10-16T06:18:40.213Z,15.63
2018-10-16T06:21:08.212Z,27.43
2018-10-16T06:23:36.251Z,27.23
2018-10-16T06:26:04.457Z,32.80
2018-10-16T06:28:32.414Z,33.67
2018-10-16T06:31:00.369Z,28.23
2018-10-16T06:33:29.721Z,29.40
2018-10-16T06:35:57.760Z,31.77
2018-10-16T06:38:25.761Z,26.30
2018-10-16T06:40:54.007Z,30.20
2018-10-16T06:43:21.781Z,28.63
2018-10-16T06:45:49.810Z,26.57
2018-10-16T06:48:17.988Z,29.87
2018-10-16T06:50:45.803Z,30.73
2018-10-16T06:53:13.806Z,21.27
2018-10-16T06:55:41.961Z,25.10
2018-10-16T06:58:09.939Z,27.13
2018-10-16T07:00:37.894Z,28.77
2018-10-16T07:03:05.960Z,23.40
2018-10-16T07:05:33.891Z,31.10
2018-10-16T07:08:05.544Z,21.17
2018-10-16T07:10:33.505Z,22.33
2018-10-16T07:13:01.447Z,26.33
2018-10-16T07:15:29.428Z,28.83
2018-10-16T07:17:57.520Z,31.00
2018-10-16T07:20:25.484Z,34.13
2018-10-16T07:22:53.424Z,32.00
2018-10-16T07:25:21.487Z,41.87
2018-10-16T07:27:49.412Z,40.23
2018-10-16T07:30:17.441Z,26.03
2018-10-16T07:32:45.323Z,24.90
2018-10-16T07:35:13.330Z,33.10
2018-10-16T07:37:41.480Z,25.83
2018-10-16T07:40:14.047Z,24.20
2018-10-16T07:42:41.995Z,24.23
2018-10-16T07:45:10.091Z,23.60
2018-10-16T07:47:38.336Z,25.83
2018-10-16T07:50:08.591Z,28.50
2018-10-16T07:52:36.561Z,22.63
2018-10-16T07:55:06.264Z,32.83
2018-10-16T07:57:34.223Z,26.23
2018-10-16T08:00:02.211Z,25.47
2018-10-16T08:02:30.155Z,28.17
2018-10-16T08:04:58.096Z,24.30
2018-10-16T08:07:26.067Z,26.20
2018-10-16T08:09:54.052Z,24.07
2018-10-16T08:12:21.984Z,18.33
2018-10-16T08:14:50.323Z,24.43
2018-10-16T08:17:18.337Z,16.60
2018-10-16T08:19:46.227Z,26.17
2018-10-16T08:22:14.434Z,29.77
2018-10-16T08:24:42.393Z,26.70
2018-10-16T08:27:10.323Z,28.70
2018-10-16T08:29:38.328Z,26.03
2018-10-16T08:32:06.652Z,25.10
2018-10-16T08:34:34.574Z,17.63
2018-10-16T08:37:02.573Z,24.67
2018-10-16T08:39:40.102Z,18.17
2018-10-16T08:42:23.413Z,23.57
2018-10-16T08:45:28.095Z,19.47
2018-10-16T08:48:07.726Z,25.83
2018-10-16T08:50:48.474Z,21.43
2018-10-16T08:53:16.472Z,22.33
2018-10-16T08:55:47.913Z,22.10
2018-10-16T08:58:16.149Z,22.47
2018-10-16T09:00:44.088Z,21.33
2018-10-16T09:03:12.070Z,22.23
2018-10-16T09:05:40.066Z,22.30
2018-10-16T09:08:08.008Z,19.97
2018-10-16T09:10:39.207Z,15.20
2018-10-16T09:13:07.224Z,18.83
2018-10-16T09:15:35.143Z,24.93
2018-10-16T09:18:03.231Z,18.50
2018-10-16T09:20:31.151Z,20.40
2018-10-16T09:22:59.096Z,16.03
2018-10-16T09:25:30.242Z,14.43
2018-10-16T09:27:58.185Z,20.73
2018-10-16T09:30:26.147Z,22.60
2018-10-16T09:32:54.109Z,21.77
2018-10-16T09:35:22.055Z,19.90
2018-10-16T09:37:50.374Z,20.60
2018-10-16T09:40:18.339Z,20.43
2018-10-16T09:42:46.380Z,20.50
2018-10-16T09:45:14.689Z,19.77
2018-10-16T09:47:42.607Z,17.30
2018-10-16T09:50:10.962Z,18.07
2018-10-16T09:52:38.998Z,17.73
2018-10-16T09:55:07.612Z,20.07
2018-10-16T09:57:35.559Z,20.90
2018-10-16T10:00:03.979Z,17.83
2018-10-16T10:02:31.936Z,22.50
2018-10-16T10:04:59.872Z,16.93
2018-10-16T10:07:27.851Z,20.97
2018-10-16T10:09:55.827Z,22.70
2018-10-16T10:12:23.919Z,19.93
2018-10-16T10:14:51.861Z,18.67
2018-10-16T10:17:19.793Z,17.37
2018-10-16T10:19:48.035Z,14.53
2018-10-16T10:22:16.080Z,26.27
2018-10-16T10:24:44.020Z,19.00
2018-10-16T10:27:11.993Z,22.80
2018-10-16T10:29:39.959Z,24.47
2018-10-16T10:32:08.351Z,22.17
2018-10-16T10:34:36.300Z,16.40
2018-10-16T10:37:04.772Z,20.43
2018-10-16T10:39:32.736Z,21.30
2018-10-16T10:42:00.709Z,15.73
2018-10-16T10:44:28.671Z,20.47
2018-10-16T10:46:56.642Z,18.33
2018-10-16T10:49:24.619Z,33.13
2018-10-16T10:51:52.580Z,24.47
2018-10-16T10:54:20.556Z,21.33
2018-10-16T10:56:48.587Z,17.57
2018-10-16T10:59:16.488Z,20.40
2018-10-16T11:01:44.451Z,19.17
2018-10-16T11:04:12.450Z,17.73
2018-10-16T11:06:40.415Z,19.10
2018-10-16T11:09:10.338Z,21.03
2018-10-16T11:11:38.680Z,19.03
2018-10-16T11:14:06.696Z,16.30
2018-10-16T11:16:34.632Z,22.03
2018-10-16T11:19:02.641Z,21.83
2018-10-16T11:21:30.631Z,18.33
2018-10-16T11:23:58.595Z,18.13
2018-10-16T11:26:26.567Z,24.07
2018-10-16T11:28:54.514Z,16.60
2018-10-16T11:31:22.459Z,17.27
2018-10-16T11:33:50.484Z,20.47
2018-10-16T11:36:18.465Z,13.80
2018-10-16T11:38:46.387Z,13.67
2018-10-16T11:41:14.715Z,19.80
2018-10-16T11:43:42.724Z,20.80
2018-10-16T11:46:10.663Z,18.27
2018-10-16T11:48:38.806Z,17.70
2018-10-16T11:51:06.736Z,26.13
2018-10-16T11:53:34.878Z,13.73
2018-10-16T11:56:02.980Z,35.53
2018-10-16T11:58:36.500Z,39.27
2018-10-16T12:01:04.596Z,25.27
2018-10-16T12:03:32.551Z,21.33
2018-10-16T12:06:00.697Z,20.33
2018-10-16T12:08:28.657Z,23.87
2018-10-16T12:10:56.654Z,17.63
2018-10-16T12:13:24.592Z,18.00
2018-10-16T12:15:52.696Z,20.67
2018-10-16T12:18:31.267Z,25.03
2018-10-16T12:21:04.765Z,24.13
2018-10-16T12:23:32.952Z,20.47
2018-10-16T12:26:00.955Z,24.43
2018-10-16T12:28:28.986Z,18.20
2018-10-16T12:30:56.988Z,18.97
2018-10-16T12:33:24.918Z,15.60
2018-10-16T12:35:52.930Z,13.13
2018-10-16T12:38:21.001Z,17.97
2018-10-16T12:40:48.991Z,15.93
2018-10-16T12:43:16.976Z,18.83
2018-10-16T12:45:44.879Z,13.67
2018-10-16T12:48:12.875Z,22.57
2018-10-16T12:50:40.839Z,29.17
2018-10-16T12:53:08.924Z,25.60
2018-10-16T12:55:36.779Z,19.93
2018-10-16T12:58:05.520Z,20.93
2018-10-16T13:00:33.467Z,22.83
2018-10-16T13:03:01.464Z,20.50
2018-10-16T13:05:29.356Z,26.03
2018-10-16T13:07:57.325Z,23.07
2018-10-16T13:10:25.270Z,14.03
2018-10-16T13:12:53.231Z,22.20
2018-10-16T13:15:21.159Z,15.87
2018-10-16T13:17:49.151Z,17.67
2018-10-16T13:20:17.162Z,18.87
2018-10-16T13:22:46.768Z,20.63
2018-10-16T13:25:15.476Z,28.33
2018-10-16T13:27:43.561Z,19.00
2018-10-16T13:30:17.240Z,18.57
2018-10-16T13:32:45.671Z,19.53
2018-10-16T13:35:15.020Z,15.93
2018-10-16T13:37:45.051Z,16.53
2018-10-16T13:40:13.298Z,15.50
2018-10-16T13:42:41.186Z,22.20
2018-10-16T13:45:13.185Z,23.00
2018-10-16T13:47:41.116Z,22.07
2018-10-16T13:50:11.415Z,21.60
2018-10-16T13:52:39.509Z,22.40
2018-10-16T13:55:08.295Z,22.60
2018-10-16T13:57:36.247Z,20.03
2018-10-16T14:00:10.356Z,18.43
2018-10-16T14:02:38.313Z,21.73
2018-10-16T14:05:06.437Z,29.50
2018-10-16T14:07:34.440Z,33.73
2018-10-16T14:10:02.417Z,20.37
2018-10-16T14:12:30.351Z,27.10
2018-10-16T14:15:02.206Z,17.77
2018-10-16T14:17:30.183Z,18.60
2018-10-16T14:19:58.137Z,19.40
2018-10-16T14:22:26.059Z,25.97
2018-10-16T14:24:54.405Z,19.43
2018-10-16T14:27:22.362Z,17.80
2018-10-16T14:29:50.340Z,25.17
2018-10-16T14:32:18.520Z,31.13
2018-10-16T14:34:46.279Z,15.47
2018-10-16T14:37:14.186Z,19.80
2018-10-16T14:39:42.426Z,20.47
2018-10-16T14:42:10.411Z,24.67
2018-10-16T14:44:38.420Z,24.40
2018-10-16T14:49:39.752Z,21.03
2018-10-16T14:52:07.751Z,25.70
2018-10-16T14:54:35.917Z,25.60
2018-10-16T14:57:03.923Z,19.10
2018-10-16T14:59:31.791Z,25.87
2018-10-16T15:01:59.816Z,27.10
2018-10-16T15:04:27.743Z,30.07
2018-10-16T15:06:55.713Z,26.63
2018-10-16T15:09:23.697Z,22.60
2018-10-16T15:11:51.691Z,22.70
2018-10-16T15:14:19.669Z,24.77
2018-10-16T15:16:47.616Z,23.70
2018-10-16T15:19:15.593Z,22.77
2018-10-16T15:21:43.570Z,25.50
2018-10-16T15:24:11.556Z,27.57
2018-10-16T15:26:39.484Z,24.93
2018-10-16T15:29:07.479Z,26.10
2018-10-16T15:31:35.434Z,27.77
2018-10-16T15:34:03.791Z,26.03
2018-10-16T15:36:31.739Z,24.47
2018-10-16T15:38:59.697Z,29.30
2018-10-16T15:41:27.660Z,23.57
2018-10-16T15:43:55.729Z,25.07
2018-10-16T15:46:23.647Z,23.50
2018-10-16T15:48:51.637Z,24.43
2018-10-16T15:51:19.676Z,18.47
2018-10-16T15:53:47.658Z,21.60
2018-10-16T15:56:15.807Z,25.57
2018-10-16T15:58:43.759Z,24.40
2018-10-16T16:01:11.716Z,20.10
2018-10-16T16:03:39.662Z,22.93
2018-10-16T16:06:07.661Z,17.43
2018-10-16T16:08:35.623Z,23.70
2018-10-16T16:11:03.588Z,22.97
2018-10-16T16:13:31.823Z,24.50
2018-10-16T16:15:59.777Z,27.40
2018-10-16T16:18:27.853Z,26.83
2018-10-16T16:20:56.141Z,22.47
2018-10-16T16:23:24.915Z,28.10
2018-10-16T16:25:52.988Z,26.97
2018-10-16T16:28:21.240Z,25.37
2018-10-16T16:30:49.171Z,31.83
2018-10-16T16:33:17.115Z,33.60
2018-10-16T16:35:45.401Z,28.40
2018-10-16T16:38:13.498Z,34.07
2018-10-16T16:40:41.384Z,25.93
2018-10-16T16:43:09.374Z,25.10
2018-10-16T16:45:37.355Z,18.90
2018-10-16T16:48:05.417Z,34.33
2018-10-16T16:50:33.378Z,23.20
2018-10-16T16:53:01.343Z,33.73
2018-10-16T16:55:29.315Z,31.30
2018-10-16T16:57:57.253Z,23.73
2018-10-16T17:00:25.223Z,23.47
2018-10-16T17:02:57.003Z,37.63
2018-10-16T17:05:25.332Z,25.93
2018-10-16T17:07:53.322Z,27.27
2018-10-16T17:10:21.284Z,25.30
2018-10-16T17:12:49.251Z,25.63
2018-10-16T17:15:17.176Z,40.80
2018-10-16T17:17:46.023Z,31.43
2018-10-16T17:20:14.274Z,33.90
2018-10-16T17:22:42.309Z,29.10
2018-10-16T17:25:12.142Z,31.87
2018-10-16T17:27:40.031Z,31.93
2018-10-16T17:30:10.201Z,28.10
2018-10-16T17:32:38.161Z,34.03
2018-10-16T17:35:06.717Z,31.37
2018-10-16T17:37:34.665Z,31.87
2018-10-16T17:40:02.642Z,30.40
2018-10-16T17:42:30.916Z,34.83
2018-10-16T17:44:58.858Z,44.20
2018-10-16T17:47:26.778Z,37.37
2018-10-16T17:49:55.031Z,42.47
2018-10-16T17:52:22.972Z,36.53
2018-10-16T17:54:50.913Z,31.17
2018-10-16T17:57:18.866Z,34.27
2018-10-16T17:59:47.110Z,30.13
2018-10-16T18:02:15.077Z,32.90
2018-10-16T18:04:43.134Z,38.50
2018-10-16T18:07:10.991Z,31.43
2018-10-16T18:09:38.958Z,31.93
2018-10-16T18:12:07.147Z,30.70
2018-10-16T18:14:35.122Z,30.90
2018-10-16T18:17:03.088Z,33.03
2018-10-16T18:19:34.873Z,29.70
2018-10-16T18:22:02.847Z,31.93
2018-10-16T18:24:30.798Z,28.13
2018-10-16T18:26:58.817Z,26.10
2018-10-16T18:29:26.725Z,34.73
2018-10-16T18:31:54.661Z,33.70
2018-10-16T18:34:25.860Z,33.73
2018-10-16T18:36:53.786Z,30.93
2018-10-16T18:39:21.747Z,29.47
2018-10-16T18:41:49.672Z,37.20
2018-10-16T18:44:17.630Z,30.13
2018-10-16T18:46:45.910Z,30.80
2018-10-16T18:49:13.864Z,29.57
2018-10-16T18:51:41.800Z,37.27
2018-10-16T18:54:09.773Z,35.73
2018-10-16T18:56:37.713Z,34.60
2018-10-16T18:59:05.701Z,38.67
2018-10-16T19:01:33.655Z,34.83
2018-10-16T19:04:01.585Z,31.73
2018-10-16T19:06:29.548Z,32.37
2018-10-16T19:08:57.484Z,33.43
2018-10-16T19:11:25.415Z,30.70
2018-10-16T19:13:53.476Z,36.70
2018-10-16T19:16:21.389Z,30.67
2018-10-16T19:18:49.340Z,33.57
2018-10-16T19:21:17.348Z,36.00
2018-10-16T19:23:45.391Z,31.70
2018-10-16T19:26:13.357Z,26.17
2018-10-16T19:28:41.345Z,28.53
2018-10-16T19:31:09.309Z,28.37
2018-10-16T19:33:37.348Z,31.87
2018-10-16T19:36:05.922Z,27.17
2018-10-16T19:38:33.943Z,39.70
2018-10-16T19:41:01.887Z,34.40
2018-10-16T19:43:29.923Z,27.37
2018-10-16T19:45:58.415Z,31.40
2018-10-16T19:48:26.443Z,31.97
2018-10-16T19:50:54.522Z,36.90
2018-10-16T19:53:22.590Z,30.73
2018-10-16T19:55:50.527Z,27.10
2018-10-16T19:58:18.524Z,30.73
2018-10-16T20:00:46.459Z,27.97
2018-10-16T20:03:14.502Z,28.20
2018-10-16T20:05:43.967Z,24.93
2018-10-16T20:08:11.915Z,29.53
2018-10-16T20:10:39.883Z,28.90
2018-10-16T20:13:07.851Z,28.07
2018-10-16T20:15:35.915Z,26.23
2018-10-16T20:18:03.755Z,27.83
2018-10-16T20:20:31.721Z,30.17
2018-10-16T20:22:59.698Z,30.77
2018-10-16T20:25:27.701Z,26.10
2018-10-16T20:27:55.667Z,31.03
2018-10-16T20:30:23.644Z,23.80
2018-10-16T20:32:51.599Z,23.33
2018-10-16T20:35:19.612Z,26.80
2018-10-16T20:37:47.794Z,29.17
2018-10-16T20:40:15.738Z,28.40
2018-10-16T20:42:43.766Z,27.03
2018-10-16T20:45:11.723Z,28.77
2018-10-16T20:47:39.899Z,26.70
2018-10-16T20:50:07.779Z,24.97
2018-10-16T20:52:35.763Z,30.50
2018-10-16T20:55:03.875Z,30.20
2018-10-16T20:57:31.794Z,28.97
2018-10-16T21:00:00.044Z,25.83
2018-10-16T21:02:28.073Z,23.47
2018-10-16T21:04:56.250Z,29.87
2018-10-16T21:07:24.081Z,23.23
2018-10-16T21:09:51.993Z,26.03
2018-10-16T21:12:19.955Z,28.27
2018-10-16T21:14:48.192Z,28.13
2018-10-16T21:17:16.151Z,23.87
2018-10-16T21:26:59.970Z,23.97
2018-10-16T21:29:28.102Z,30.87
2018-10-16T21:31:56.063Z,22.63
2018-10-16T21:34:24.035Z,23.50
2018-10-16T21:36:52.023Z,27.10
2018-10-16T21:39:20.042Z,27.37
2018-10-16T21:41:48.039Z,27.27
2018-10-16T21:44:16.042Z,28.40
2018-10-16T21:46:44.090Z,29.10
2018-10-16T21:49:12.232Z,29.30
2018-10-16T21:51:40.125Z,22.03
2018-10-16T21:54:08.114Z,26.60
2018-10-16T21:56:42.783Z,26.17
2018-10-16T21:59:10.830Z,22.83
2018-10-16T22:01:44.163Z,31.50
2018-10-16T22:04:12.134Z,27.50
2018-10-16T22:06:40.121Z,23.80
2018-10-16T22:09:11.107Z,22.07
2018-10-16T22:11:39.090Z,25.53
2018-10-16T22:14:07.542Z,21.80
2018-10-16T22:16:35.827Z,29.07
2018-10-16T22:19:04.064Z,24.63
2018-10-16T22:21:31.970Z,26.90
2018-10-16T22:24:03.618Z,28.00
2018-10-16T22:26:31.828Z,26.40
2018-10-16T22:29:00.312Z,26.67
2018-10-16T22:31:28.273Z,27.77
2018-10-16T22:33:56.235Z,27.77
2018-10-16T22:36:24.809Z,28.40
2018-10-16T22:38:52.822Z,24.80
2018-10-16T22:41:20.819Z,26.07
2018-10-16T22:43:48.910Z,21.93
2018-10-16T22:46:16.864Z,26.00
2018-10-16T22:48:44.872Z,25.63
2018-10-16T22:51:12.842Z,24.03
2018-10-16T22:53:44.112Z,22.27
2018-10-16T22:56:12.066Z,24.23
2018-10-16T22:58:40.075Z,25.07
2018-10-16T23:01:08.115Z,20.73
2018-10-16T23:03:36.004Z,23.30
2018-10-16T23:06:04.574Z,24.27
2018-10-16T23:08:32.562Z,33.03
2018-10-16T23:11:00.679Z,22.17
2018-10-16T23:13:28.590Z,24.53
2018-10-16T23:15:56.542Z,23.87
2018-10-16T23:18:24.486Z,26.27
2018-10-16T23:20:52.450Z,24.33
2018-10-16T23:23:20.403Z,27.83
2018-10-16T23:25:48.370Z,32.53
2018-10-16T23:28:16.315Z,25.53
2018-10-16T23:30:44.375Z,25.70
2018-10-16T23:33:12.341Z,34.83
2018-10-16T23:35:40.282Z,30.37
2018-10-16T23:38:08.226Z,29.70
2018-10-16T23:40:36.215Z,24.97
2018-10-16T23:43:04.523Z,24.10
2018-10-16T23:45:32.443Z,22.63
2018-10-16T23:48:00.404Z,25.40
2018-10-16T23:50:28.407Z,25.33
2018-10-16T23:52:56.420Z,27.67
2018-10-16T23:55:28.351Z,27.60
2018-10-16T23:57:56.302Z,23.87
